Back to Top

Language: 

My Weather Underground Personal Weather Station Historical Data with Graphs...

Delerius Weather Station Historical Data
Daily Summary for May 8, 2017 Units:  Metric    English   Both
« Previous Day
Next Day »
Daily Weekly Monthly Yearly Custom
  High: Low: Average:
Temperature: 11.1 °C 7.1 °C 8.7 °C
Dew Point: 5 °C 2.6 °C 3.8 °C
Humidity: 79 % 64 % 72 %
Wind Speed: 19.3 km/h 3.2 km/h 11.7 km/h
Wind Gust: 41.8 km/h - -
Wind:- - NE
Pressure: 1030.4 hPa 1026.3 hPa -
Precipitation: 0 mm    
Historical Graphs
 
 
Tabular Data for May 8, 2017
Time Temperature Dew Point Pressure Wind Wind Speed Wind Gust Humidity Rainfall Rate (Hourly) solar Conditions
00:02 7.4 °C 4 °C 1026.3 hPa North 8 km/h 17.7 km/h 79 % 0 mm 0 W/m2
00:07 7.4 °C 3.8 °C 1026.3 hPa North 9.7 km/h 22.5 km/h 78 % 0 mm 0 W/m2
00:12 7.3 °C 3.7 °C 1026.3 hPa North 11.3 km/h 25.7 km/h 78 % 0 mm 0 W/m2
00:18 7.4 °C 3.8 °C 1026.3 hPa North 9.7 km/h 25.7 km/h 78 % 0 mm 0 W/m2
00:23 7.4 °C 4 °C 1026.3 hPa North 6.4 km/h 16.1 km/h 79 % 0 mm 0 W/m2
00:28 7.4 °C 3.8 °C 1026.6 hPa North 8 km/h 19.3 km/h 78 % 0 mm 0 W/m2
00:33 7.4 °C 3.8 °C 1026.6 hPa North 9.7 km/h 19.3 km/h 78 % 0 mm 0 W/m2
00:38 7.4 °C 3.8 °C 1026.6 hPa North 9.7 km/h 19.3 km/h 78 % 0 mm 0 W/m2
00:43 7.4 °C 3.8 °C 1026.6 hPa North 8 km/h 22.5 km/h 78 % 0 mm 0 W/m2
00:48 7.4 °C 3.8 °C 1026.6 hPa North 8 km/h 29 km/h 78 % 0 mm 0 W/m2
00:53 7.3 °C 3.7 °C 1026.6 hPa North 8 km/h 29 km/h 78 % 0 mm 0 W/m2
00:58 7.4 °C 3.8 °C 1026.6 hPa North 8 km/h 20.9 km/h 78 % 0 mm 0 W/m2
01:03 7.4 °C 3.8 °C 1026.6 hPa North 9.7 km/h 20.9 km/h 78 % 0 mm 0 W/m2
01:08 7.3 °C 3.7 °C 1026.3 hPa North 9.7 km/h 19.3 km/h 78 % 0 mm 0 W/m2
01:13 7.3 °C 3.7 °C 1026.6 hPa North 12.9 km/h 25.7 km/h 78 % 0 mm 0 W/m2
01:18 7.3 °C 3.7 °C 1026.6 hPa North 16.1 km/h 25.7 km/h 78 % 0 mm 0 W/m2
01:23 7.3 °C 3.7 °C 1026.6 hPa North 14.5 km/h 30.6 km/h 78 % 0 mm 0 W/m2
01:28 7.3 °C 3.7 °C 1026.6 hPa North 14.5 km/h 30.6 km/h 78 % 0 mm 0 W/m2
01:33 7.3 °C 3.7 °C 1026.6 hPa NNE 11.3 km/h 25.7 km/h 78 % 0 mm 0 W/m2
01:38 7.3 °C 3.7 °C 1026.3 hPa NNE 9.7 km/h 22.5 km/h 78 % 0 mm 0 W/m2
01:43 7.3 °C 3.7 °C 1026.3 hPa NNE 11.3 km/h 19.3 km/h 78 % 0 mm 0 W/m2
01:48 7.3 °C 3.7 °C 1026.3 hPa North 9.7 km/h 20.9 km/h 78 % 0 mm 0 W/m2
01:53 7.3 °C 3.9 °C 1026.3 hPa North 11.3 km/h 29 km/h 79 % 0 mm 0 W/m2
01:58 7.3 °C 3.7 °C 1026.6 hPa North 12.9 km/h 30.6 km/h 78 % 0 mm 0 W/m2
02:03 7.4 °C 3.8 °C 1026.3 hPa North 12.9 km/h 30.6 km/h 78 % 0 mm 0 W/m2
02:08 7.4 °C 4 °C 1026.3 hPa North 9.7 km/h 24.1 km/h 79 % 0 mm 0 W/m2
02:14 7.4 °C 4 °C 1026.3 hPa North 11.3 km/h 25.7 km/h 79 % 0 mm 0 W/m2
02:19 7.4 °C 4 °C 1026.3 hPa North 11.3 km/h 25.7 km/h 79 % 0 mm 0 W/m2
02:24 7.4 °C 3.8 °C 1026.3 hPa North 14.5 km/h 32.2 km/h 78 % 0 mm 0 W/m2
02:29 7.4 °C 3.8 °C 1026.6 hPa North 16.1 km/h 32.2 km/h 78 % 0 mm 0 W/m2
02:34 7.5 °C 3.9 °C 1026.6 hPa North 14.5 km/h 29 km/h 78 % 0 mm 0 W/m2
02:39 7.5 °C 3.9 °C 1026.6 hPa North 14.5 km/h 29 km/h 78 % 0 mm 0 W/m2
02:44 7.5 °C 3.9 °C 1026.6 hPa North 12.9 km/h 25.7 km/h 78 % 0 mm 0 W/m2
02:49 7.5 °C 3.9 °C 1026.3 hPa North 11.3 km/h 20.9 km/h 78 % 0 mm 0 W/m2
02:54 7.5 °C 3.9 °C 1026.6 hPa North 11.3 km/h 25.7 km/h 78 % 0 mm 0 W/m2
02:59 7.5 °C 3.9 °C 1026.6 hPa North 12.9 km/h 25.7 km/h 78 % 0 mm 0 W/m2
03:04 7.5 °C 3.9 °C 1026.6 hPa North 12.9 km/h 24.1 km/h 78 % 0 mm 0 W/m2
03:09 7.5 °C 3.9 °C 1026.6 hPa North 12.9 km/h 24.1 km/h 78 % 0 mm 0 W/m2
03:14 7.5 °C 3.9 °C 1026.6 hPa North 12.9 km/h 24.1 km/h 78 % 0 mm 0 W/m2
03:19 7.5 °C 3.9 °C 1026.6 hPa North 11.3 km/h 22.5 km/h 78 % 0 mm 0 W/m2
03:24 7.5 °C 3.9 °C 1027 hPa NNE 9.7 km/h 22.5 km/h 78 % 0 mm 0 W/m2
03:29 7.6 °C 4 °C 1026.6 hPa NNE 9.7 km/h 20.9 km/h 78 % 0 mm 0 W/m2
03:34 7.6 °C 4 °C 1026.6 hPa North 11.3 km/h 29 km/h 78 % 0 mm 0 W/m2
03:39 7.6 °C 4 °C 1026.6 hPa North 11.3 km/h 29 km/h 78 % 0 mm 0 W/m2
03:44 7.6 °C 4 °C 1026.6 hPa NNE 14.5 km/h 32.2 km/h 78 % 0 mm 0 W/m2
03:49 7.5 °C 3.9 °C 1027 hPa NNE 16.1 km/h 32.2 km/h 78 % 0 mm 0 W/m2
03:54 7.5 °C 3.9 °C 1027 hPa NNE 14.5 km/h 29 km/h 78 % 0 mm 0 W/m2
03:59 7.5 °C 3.9 °C 1027 hPa NNE 14.5 km/h 29 km/h 78 % 0 mm 0 W/m2
04:04 7.4 °C 3.8 °C 1027 hPa NNE 16.1 km/h 29 km/h 78 % 0 mm 0 W/m2
04:09 7.4 °C 3.6 °C 1027 hPa North 16.1 km/h 29 km/h 77 % 0 mm 0 W/m2
04:14 7.4 °C 3.6 °C 1027 hPa NNE 14.5 km/h 33.8 km/h 77 % 0 mm 0 W/m2
04:19 7.4 °C 3.6 °C 1027 hPa NNE 17.7 km/h 37 km/h 77 % 0 mm 0 W/m2
04:24 7.4 °C 3.6 °C 1027 hPa NNE 17.7 km/h 37 km/h 77 % 0 mm 0 W/m2
04:29 7.4 °C 3.6 °C 1027 hPa NNE 16.1 km/h 32.2 km/h 77 % 0 mm 0 W/m2
04:34 7.4 °C 3.6 °C 1027 hPa NNE 14.5 km/h 32.2 km/h 77 % 0 mm 0 W/m2
04:39 7.4 °C 3.4 °C 1027 hPa NNE 14.5 km/h 32.2 km/h 76 % 0 mm 0 W/m2
04:44 7.3 °C 3.3 °C 1027 hPa NNE 16.1 km/h 38.6 km/h 76 % 0 mm 0 W/m2
04:46 7.3 °C 3.2 °C 1027 hPa NNE 16.1 km/h 38.6 km/h 75 % 0 mm 0 W/m2
04:51 7.3 °C 3.2 °C 1027 hPa North 16.1 km/h 38.6 km/h 75 % 0 mm 0 W/m2
04:56 7.3 °C 2.9 °C 1027 hPa North 16.1 km/h 30.6 km/h 74 % 0 mm 0 W/m2
05:01 7.3 °C 3.2 °C 1027 hPa North 16.1 km/h 30.6 km/h 75 % 0 mm 0 W/m2
05:06 7.3 °C 2.9 °C 1027 hPa North 16.1 km/h 32.2 km/h 74 % 0 mm 0 W/m2
05:11 7.3 °C 2.9 °C 1027 hPa North 16.1 km/h 32.2 km/h 74 % 0 mm 0 W/m2
05:16 7.3 °C 2.9 °C 1027 hPa North 17.7 km/h 41.8 km/h 74 % 0 mm 0 W/m2
05:21 7.3 °C 2.9 °C 1027 hPa North 16.1 km/h 41.8 km/h 74 % 0 mm 0 W/m2
05:26 7.3 °C 2.9 °C 1027 hPa North 14.5 km/h 30.6 km/h 74 % 0 mm 5 W/m2
05:31 7.3 °C 2.9 °C 1027 hPa North 16.1 km/h 30.6 km/h 74 % 0 mm 5 W/m2
05:36 7.3 °C 2.9 °C 1027 hPa North 17.7 km/h 35.4 km/h 74 % 0 mm 7 W/m2
05:41 7.3 °C 2.9 °C 1027 hPa North 19.3 km/h 35.4 km/h 74 % 0 mm 9 W/m2
05:46 7.3 °C 3.2 °C 1027.3 hPa North 17.7 km/h 33.8 km/h 75 % 0 mm 9 W/m2
05:51 7.3 °C 2.9 °C 1027.3 hPa NNE 16.1 km/h 33.8 km/h 74 % 0 mm 11 W/m2
05:56 7.3 °C 3.2 °C 1027.3 hPa North 16.1 km/h 32.2 km/h 75 % 0 mm 11 W/m2
06:01 7.3 °C 3.2 °C 1027.3 hPa North 14.5 km/h 32.2 km/h 75 % 0 mm 11 W/m2
06:06 7.3 °C 3.2 °C 1027.3 hPa North 14.5 km/h 30.6 km/h 75 % 0 mm 12 W/m2
06:11 7.3 °C 3.2 °C 1027.3 hPa North 14.5 km/h 25.7 km/h 75 % 0 mm 16 W/m2
06:16 7.4 °C 3.3 °C 1027.3 hPa North 12.9 km/h 25.7 km/h 75 % 0 mm 19 W/m2
06:21 7.4 °C 3.3 °C 1027.3 hPa North 11.3 km/h 25.7 km/h 75 % 0 mm 25 W/m2
06:26 7.4 °C 3.3 °C 1027.3 hPa North 11.3 km/h 20.9 km/h 75 % 0 mm 26 W/m2
06:31 7.4 °C 3.4 °C 1027.3 hPa NNE 14.5 km/h 24.1 km/h 76 % 0 mm 25 W/m2
06:36 7.4 °C 3.3 °C 1027.3 hPa North 16.1 km/h 32.2 km/h 75 % 0 mm 39 W/m2
06:41 7.4 °C 3.3 °C 1027.3 hPa North 14.5 km/h 33.8 km/h 75 % 0 mm 47 W/m2
06:46 7.5 °C 3.2 °C 1027.3 hPa North 17.7 km/h 33.8 km/h 74 % 0 mm 51 W/m2
06:51 7.5 °C 3.2 °C 1027.3 hPa North 17.7 km/h 33.8 km/h 74 % 0 mm 46 W/m2
06:56 7.6 °C 3.3 °C 1027.3 hPa NNE 14.5 km/h 25.7 km/h 74 % 0 mm 54 W/m2
07:01 7.6 °C 3.3 °C 1027.3 hPa NNE 14.5 km/h 29 km/h 74 % 0 mm 62 W/m2
07:06 7.6 °C 3.3 °C 1027.3 hPa NNE 12.9 km/h 29 km/h 74 % 0 mm 69 W/m2
07:11 7.6 °C 3.4 °C 1027.7 hPa North 9.7 km/h 25.7 km/h 75 % 0 mm 67 W/m2
07:17 7.7 °C 3.3 °C 1027.7 hPa North 11.3 km/h 25.7 km/h 74 % 0 mm 69 W/m2
07:22 7.7 °C 3.3 °C 1027.7 hPa North 12.9 km/h 25.7 km/h 74 % 0 mm 70 W/m2
07:27 7.7 °C 3.6 °C 1027.7 hPa North 9.7 km/h 25.7 km/h 75 % 0 mm 76 W/m2
07:32 7.7 °C 3.6 °C 1027.7 hPa NNE 8 km/h 17.7 km/h 75 % 0 mm 83 W/m2
07:37 7.8 °C 3.4 °C 1027.7 hPa North 9.7 km/h 20.9 km/h 74 % 0 mm 77 W/m2
07:42 7.8 °C 3.4 °C 1028 hPa North 11.3 km/h 20.9 km/h 74 % 0 mm 83 W/m2
07:47 7.8 °C 3.4 °C 1028 hPa North 9.7 km/h 20.9 km/h 74 % 0 mm 93 W/m2
07:52 7.8 °C 3.4 °C 1028 hPa North 9.7 km/h 22.5 km/h 74 % 0 mm 90 W/m2
07:57 7.9 °C 3.6 °C 1028 hPa North 11.3 km/h 22.5 km/h 74 % 0 mm 86 W/m2
08:02 7.9 °C 3.6 °C 1028 hPa North 12.9 km/h 30.6 km/h 74 % 0 mm 86 W/m2
08:07 7.9 °C 3.6 °C 1028 hPa North 12.9 km/h 30.6 km/h 74 % 0 mm 95 W/m2
08:13 7.9 °C 3.3 °C 1028.3 hPa North 14.5 km/h 37 km/h 73 % 0 mm 116 W/m2
08:18 7.9 °C 3.3 °C 1028.3 hPa North 16.1 km/h 37 km/h 73 % 0 mm 113 W/m2
08:23 8 °C 3.4 °C 1028.3 hPa North 12.9 km/h 24.1 km/h 73 % 0 mm 111 W/m2
08:28 8.1 °C 3.7 °C 1028.3 hPa North 12.9 km/h 24.1 km/h 74 % 0 mm 128 W/m2
08:33 8.1 °C 3.6 °C 1028.3 hPa North 12.9 km/h 29 km/h 73 % 0 mm 121 W/m2
08:38 8.1 °C 3.6 °C 1028.7 hPa North 14.5 km/h 29 km/h 73 % 0 mm 113 W/m2
08:43 8.1 °C 3.6 °C 1028.7 hPa NNE 14.5 km/h 25.7 km/h 73 % 0 mm 98 W/m2
08:48 8.1 °C 3.6 °C 1028.7 hPa North 14.5 km/h 25.7 km/h 73 % 0 mm 91 W/m2
08:53 8 °C 3.7 °C 1028.7 hPa North 12.9 km/h 29 km/h 74 % 0 mm 95 W/m2
08:58 8 °C 3.7 °C 1028.7 hPa NNE 16.1 km/h 29 km/h 74 % 0 mm 104 W/m2
09:03 8 °C 3.7 °C 1028.7 hPa North 16.1 km/h 29 km/h 74 % 0 mm 118 W/m2
09:08 8 °C 3.7 °C 1028.7 hPa NNE 12.9 km/h 25.7 km/h 74 % 0 mm 125 W/m2
09:13 8.1 °C 3.7 °C 1028.7 hPa NNE 11.3 km/h 22.5 km/h 74 % 0 mm 135 W/m2
09:18 8.2 °C 3.8 °C 1028.7 hPa North 12.9 km/h 29 km/h 74 % 0 mm 160 W/m2
09:24 8.2 °C 3.7 °C 1028.7 hPa North 14.5 km/h 29 km/h 73 % 0 mm 135 W/m2
09:29 8.3 °C 3.7 °C 1028.7 hPa North 14.5 km/h 29 km/h 73 % 0 mm 130 W/m2
09:34 8.3 °C 3.7 °C 1029 hPa North 14.5 km/h 24.1 km/h 73 % 0 mm 134 W/m2
09:39 8.3 °C 3.9 °C 1029 hPa North 12.9 km/h 24.1 km/h 74 % 0 mm 174 W/m2
09:44 8.4 °C 3.8 °C 1029 hPa North 12.9 km/h 32.2 km/h 73 % 0 mm 167 W/m2
09:49 8.4 °C 3.8 °C 1029 hPa North 14.5 km/h 32.2 km/h 73 % 0 mm 176 W/m2
09:54 8.5 °C 3.9 °C 1029 hPa North 14.5 km/h 29 km/h 73 % 0 mm 206 W/m2
09:59 8.6 °C 3.8 °C 1029 hPa North 12.9 km/h 29 km/h 72 % 0 mm 190 W/m2
10:04 8.6 °C 3.8 °C 1029 hPa North 14.5 km/h 29 km/h 72 % 0 mm 232 W/m2
10:09 8.8 °C 4 °C 1029 hPa NNE 12.9 km/h 29 km/h 72 % 0 mm 225 W/m2
10:14 8.9 °C 4.1 °C 1029 hPa NNE 9.7 km/h 22.5 km/h 72 % 0 mm 236 W/m2
10:19 9 °C 4 °C 1029 hPa NNE 12.9 km/h 30.6 km/h 71 % 0 mm 193 W/m2
10:24 8.9 °C 3.9 °C 1029 hPa North 16.1 km/h 32.2 km/h 71 % 0 mm 243 W/m2
10:29 9 °C 4 °C 1029 hPa North 12.9 km/h 32.2 km/h 71 % 0 mm 297 W/m2
10:34 9.2 °C 4.2 °C 1029 hPa NNE 14.5 km/h 32.2 km/h 71 % 0 mm 237 W/m2
10:39 9.2 °C 4 °C 1029.3 hPa NNE 17.7 km/h 35.4 km/h 70 % 0 mm 255 W/m2
10:44 9.2 °C 4.2 °C 1029.3 hPa NNE 14.5 km/h 35.4 km/h 71 % 0 mm 243 W/m2
10:49 9.3 °C 4.3 °C 1029.3 hPa NNE 12.9 km/h 30.6 km/h 71 % 0 mm 251 W/m2
10:53 9.4 °C 4.4 °C 1029 hPa North 12.9 km/h 25.7 km/h 71 % 0 mm 341 W/m2
10:58 9.3 °C 4.1 °C 1029.3 hPa North 12.9 km/h 30.6 km/h 70 % 0 mm 274 W/m2
11:03 9.3 °C 4.1 °C 1029.3 hPa NNE 14.5 km/h 30.6 km/h 70 % 0 mm 297 W/m2
11:08 9.4 °C 4.2 °C 1029.3 hPa NNE 14.5 km/h 29 km/h 70 % 0 mm 267 W/m2
11:13 9.4 °C 4 °C 1029.3 hPa NNE 14.5 km/h 29 km/h 69 % 0 mm 304 W/m2
11:18 9.5 °C 4.1 °C 1029.3 hPa NNE 16.1 km/h 30.6 km/h 69 % 0 mm 264 W/m2
11:23 9.6 °C 4.2 °C 1029.3 hPa North 16.1 km/h 30.6 km/h 69 % 0 mm 301 W/m2
11:28 9.7 °C 4.5 °C 1029.3 hPa NNE 11.3 km/h 30.6 km/h 70 % 0 mm 294 W/m2
11:33 9.8 °C 4.6 °C 1029.3 hPa NNE 9.7 km/h 20.9 km/h 70 % 0 mm 357 W/m2
11:39 9.9 °C 4.7 °C 1029.3 hPa NNE 11.3 km/h 25.7 km/h 70 % 0 mm 239 W/m2
11:44 10 °C 4.8 °C 1029.3 hPa North 11.3 km/h 25.7 km/h 70 % 0 mm 313 W/m2
11:49 10.1 °C 4.9 °C 1029.3 hPa North 12.9 km/h 22.5 km/h 70 % 0 mm 325 W/m2
11:54 10.1 °C 4.9 °C 1029.3 hPa North 12.9 km/h 20.9 km/h 70 % 0 mm 294 W/m2
11:59 10.1 °C 4.7 °C 1029.3 hPa North 12.9 km/h 20.9 km/h 69 % 0 mm 343 W/m2
12:04 10.2 °C 4.9 °C 1029.3 hPa NNE 11.3 km/h 25.7 km/h 70 % 0 mm 287 W/m2
12:09 10.2 °C 4.8 °C 1029.3 hPa NNE 12.9 km/h 25.7 km/h 69 % 0 mm 271 W/m2
12:14 10.1 °C 4.7 °C 1029.3 hPa North 14.5 km/h 25.7 km/h 69 % 0 mm 357 W/m2
12:19 10.2 °C 4.8 °C 1029.3 hPa North 14.5 km/h 30.6 km/h 69 % 0 mm 334 W/m2
12:24 10.3 °C 4.7 °C 1029.3 hPa NNE 14.5 km/h 30.6 km/h 68 % 0 mm 339 W/m2
12:29 10.3 °C 4.7 °C 1029.3 hPa NNE 12.9 km/h 29 km/h 68 % 0 mm 299 W/m2
12:34 10.3 °C 4.4 °C 1029.3 hPa NE 11.3 km/h 29 km/h 67 % 0 mm 388 W/m2
12:36 10.4 °C 4.6 °C 1029.3 hPa NE 11.3 km/h 29 km/h 67 % 0 mm 573 W/m2
12:41 10.6 °C 4.7 °C 1029.3 hPa NE 9.7 km/h 19.3 km/h 67 % 0 mm 353 W/m2
12:46 10.7 °C 4.6 °C 1029.3 hPa NE 9.7 km/h 20.9 km/h 66 % 0 mm 243 W/m2
12:51 10.8 °C 4.9 °C 1029.3 hPa NNE 11.3 km/h 24.1 km/h 67 % 0 mm 221 W/m2
12:53 10.7 °C 4.8 °C 1029.3 hPa NNE 11.3 km/h 24.1 km/h 67 % 0 mm 204 W/m2
12:58 10.4 °C 4.6 °C 1029.7 hPa NNE 14.5 km/h 29 km/h 67 % 0 mm 206 W/m2
13:03 10.3 °C 4.8 °C 1029.7 hPa NNE 14.5 km/h 37 km/h 69 % 0 mm 190 W/m2
13:08 10.2 °C 4.8 °C 1029.7 hPa North 14.5 km/h 37 km/h 69 % 0 mm 207 W/m2
13:13 10.1 °C 4.7 °C 1029.7 hPa NNE 12.9 km/h 24.1 km/h 69 % 0 mm 204 W/m2
13:18 10.1 °C 4.7 °C 1029.7 hPa NNE 12.9 km/h 20.9 km/h 69 % 0 mm 248 W/m2
13:23 10.1 °C 4.7 °C 1029.7 hPa NNE 12.9 km/h 24.1 km/h 69 % 0 mm 271 W/m2
13:28 10.2 °C 4.3 °C 1029.7 hPa NNE 12.9 km/h 25.7 km/h 67 % 0 mm 299 W/m2
13:33 10.3 °C 4.4 °C 1029.7 hPa NNE 12.9 km/h 25.7 km/h 67 % 0 mm 406 W/m2
13:38 10.6 °C 4.5 °C 1029.7 hPa NNE 11.3 km/h 20.9 km/h 66 % 0 mm 512 W/m2
13:43 10.8 °C 4.7 °C 1029.7 hPa NNE 9.7 km/h 19.3 km/h 66 % 0 mm 341 W/m2
13:48 11.1 °C 4.8 °C 1029.7 hPa NNE 11.3 km/h 24.1 km/h 65 % 0 mm 323 W/m2
13:53 11 °C 4.9 °C 1029.7 hPa NNE 12.9 km/h 24.1 km/h 66 % 0 mm 308 W/m2
13:58 11.1 °C 5 °C 1029.7 hPa NNE 11.3 km/h 24.1 km/h 66 % 0 mm 253 W/m2
14:03 11 °C 4.9 °C 1029.7 hPa NNE 11.3 km/h 20.9 km/h 66 % 0 mm 241 W/m2
14:08 10.8 °C 4.7 °C 1029.7 hPa NE 11.3 km/h 29 km/h 66 % 0 mm 320 W/m2
14:13 10.8 °C 4.7 °C 1029.7 hPa NNE 14.5 km/h 29 km/h 66 % 0 mm 353 W/m2
14:23 10.8 °C 4.5 °C 1029.7 hPa NE 12.9 km/h 30.6 km/h 65 % 0 mm 338 W/m2
14:28 10.8 °C 4.7 °C 1029.7 hPa NNE 12.9 km/h 29 km/h 66 % 0 mm 260 W/m2
14:34 10.7 °C 4.8 °C 1029.7 hPa NNE 14.5 km/h 29 km/h 67 % 0 mm 302 W/m2
14:39 10.7 °C 4.6 °C 1029.7 hPa NNE 12.9 km/h 29 km/h 66 % 0 mm 323 W/m2
14:44 10.6 °C 4.3 °C 1029.7 hPa NNE 12.9 km/h 29 km/h 65 % 0 mm 316 W/m2
14:49 10.6 °C 4.5 °C 1029.7 hPa NNE 12.9 km/h 25.7 km/h 66 % 0 mm 283 W/m2
14:54 10.5 °C 4.4 °C 1029.7 hPa NNE 14.5 km/h 30.6 km/h 66 % 0 mm 279 W/m2
14:59 10.5 °C 4.4 °C 1029.7 hPa NNE 14.5 km/h 32.2 km/h 66 % 0 mm 441 W/m2
15:04 10.7 °C 4.8 °C 1029.7 hPa NNE 11.3 km/h 32.2 km/h 67 % 0 mm 380 W/m2
15:09 11 °C 4.9 °C 1029.7 hPa NNE 9.7 km/h 24.1 km/h 66 % 0 mm 332 W/m2
15:14 11 °C 4.9 °C 1029.7 hPa NNE 11.3 km/h 20.9 km/h 66 % 0 mm 327 W/m2
15:19 11 °C 4.9 °C 1029.7 hPa NNE 12.9 km/h 24.1 km/h 66 % 0 mm 371 W/m2
15:24 11 °C 4.9 °C 1029.7 hPa NNE 11.3 km/h 24.1 km/h 66 % 0 mm 478 W/m2
15:29 11 °C 4.7 °C 1029.7 hPa NE 12.9 km/h 29 km/h 65 % 0 mm 283 W/m2
15:34 10.8 °C 4.5 °C 1029.7 hPa NNE 14.5 km/h 29 km/h 65 % 0 mm 264 W/m2
15:39 10.8 °C 4.7 °C 1029.7 hPa NNE 12.9 km/h 25.7 km/h 66 % 0 mm 327 W/m2
15:44 10.8 °C 4.5 °C 1029.7 hPa NNE 14.5 km/h 25.7 km/h 65 % 0 mm 302 W/m2
15:49 10.8 °C 4.7 °C 1029.7 hPa NNE 12.9 km/h 25.7 km/h 66 % 0 mm 253 W/m2
15:54 10.8 °C 4.7 °C 1029.7 hPa NNE 12.9 km/h 24.1 km/h 66 % 0 mm 264 W/m2
15:59 10.7 °C 4.4 °C 1029.7 hPa NNE 12.9 km/h 25.7 km/h 65 % 0 mm 271 W/m2
16:04 10.7 °C 4.6 °C 1029.7 hPa NE 11.3 km/h 25.7 km/h 66 % 0 mm 241 W/m2
16:09 10.8 °C 4.7 °C 1029.3 hPa NNE 8 km/h 22.5 km/h 66 % 0 mm 246 W/m2
16:14 10.8 °C 4.7 °C 1029.3 hPa NE 9.7 km/h 24.1 km/h 66 % 0 mm 278 W/m2
16:19 10.8 °C 4.5 °C 1029.3 hPa NE 9.7 km/h 24.1 km/h 65 % 0 mm 213 W/m2
16:24 10.8 °C 4.7 °C 1029.3 hPa NNE 9.7 km/h 22.5 km/h 66 % 0 mm 174 W/m2
16:29 10.8 °C 4.7 °C 1029.3 hPa NNE 9.7 km/h 20.9 km/h 66 % 0 mm 149 W/m2
16:34 10.7 °C 4.6 °C 1029.7 hPa North 11.3 km/h 32.2 km/h 66 % 0 mm 169 W/m2
16:39 10.6 °C 4.7 °C 1029.7 hPa North 9.7 km/h 32.2 km/h 67 % 0 mm 167 W/m2
16:44 10.4 °C 4.1 °C 1029.3 hPa NNE 9.7 km/h 24.1 km/h 65 % 0 mm 221 W/m2
16:49 10.4 °C 4.1 °C 1029.3 hPa NNE 11.3 km/h 24.1 km/h 65 % 0 mm 211 W/m2
16:54 10.4 °C 4.3 °C 1029.3 hPa NNE 11.3 km/h 22.5 km/h 66 % 0 mm 202 W/m2
16:59 10.4 °C 4.3 °C 1029.3 hPa NNE 12.9 km/h 24.1 km/h 66 % 0 mm 216 W/m2
17:04 10.5 °C 4.4 °C 1029.3 hPa NNE 11.3 km/h 24.1 km/h 66 % 0 mm 218 W/m2
17:09 10.4 °C 4.1 °C 1029.3 hPa NE 11.3 km/h 30.6 km/h 65 % 0 mm 218 W/m2
17:14 10.4 °C 4.1 °C 1029.3 hPa NNE 12.9 km/h 30.6 km/h 65 % 0 mm 216 W/m2
17:19 10.4 °C 3.9 °C 1029.3 hPa NNE 11.3 km/h 25.7 km/h 64 % 0 mm 188 W/m2
17:25 10.5 °C 4.4 °C 1029.3 hPa NNE 11.3 km/h 30.6 km/h 66 % 0 mm 156 W/m2
17:30 10.5 °C 4.4 °C 1029.3 hPa North 11.3 km/h 30.6 km/h 66 % 0 mm 160 W/m2
17:35 10.3 °C 4.2 °C 1029.3 hPa NNE 12.9 km/h 32.2 km/h 66 % 0 mm 214 W/m2
17:40 10.1 °C 4.1 °C 1029.3 hPa NNE 14.5 km/h 32.2 km/h 66 % 0 mm 190 W/m2
17:45 10.1 °C 4.1 °C 1029.3 hPa NNE 12.9 km/h 32.2 km/h 66 % 0 mm 197 W/m2
17:50 10.1 °C 4.1 °C 1029.3 hPa NNE 11.3 km/h 24.1 km/h 66 % 0 mm 186 W/m2
17:55 10.1 °C 3.8 °C 1029 hPa NNE 12.9 km/h 24.1 km/h 65 % 0 mm 186 W/m2
18:00 10.1 °C 3.8 °C 1029.3 hPa NNE 12.9 km/h 20.9 km/h 65 % 0 mm 135 W/m2
18:05 10.1 °C 3.8 °C 1029 hPa NE 11.3 km/h 22.5 km/h 65 % 0 mm 141 W/m2
18:10 10 °C 3.9 °C 1029 hPa NE 9.7 km/h 22.5 km/h 66 % 0 mm 134 W/m2
18:15 10 °C 3.9 °C 1029.3 hPa NE 4.8 km/h 17.7 km/h 66 % 0 mm 167 W/m2
18:21 9.9 °C 3.6 °C 1029 hPa NNE 8 km/h 29 km/h 65 % 0 mm 158 W/m2
18:26 9.8 °C 3.5 °C 1029 hPa NNE 12.9 km/h 29 km/h 65 % 0 mm 127 W/m2
18:31 9.8 °C 3.5 °C 1029 hPa NNE 11.3 km/h 22.5 km/h 65 % 0 mm 98 W/m2
18:36 9.7 °C 3.7 °C 1029.3 hPa NNE 12.9 km/h 25.7 km/h 66 % 0 mm 100 W/m2
18:41 9.7 °C 3.9 °C 1029.3 hPa NNE 12.9 km/h 25.7 km/h 67 % 0 mm 86 W/m2
18:46 9.6 °C 3.8 °C 1029.3 hPa NNE 11.3 km/h 22.5 km/h 67 % 0 mm 93 W/m2
18:51 9.5 °C 3.7 °C 1029.3 hPa NNE 11.3 km/h 25.7 km/h 67 % 0 mm 111 W/m2
18:56 9.4 °C 3.4 °C 1029.3 hPa NNE 11.3 km/h 25.7 km/h 66 % 0 mm 90 W/m2
19:01 9.4 °C 3.4 °C 1029.3 hPa NNE 12.9 km/h 25.7 km/h 66 % 0 mm 74 W/m2
19:06 9.3 °C 3.5 °C 1029.3 hPa NNE 12.9 km/h 25.7 km/h 67 % 0 mm 70 W/m2
19:11 9.3 °C 3.7 °C 1029.3 hPa NNE 11.3 km/h 24.1 km/h 68 % 0 mm 54 W/m2
19:16 9.2 °C 3.6 °C 1029.3 hPa NNE 12.9 km/h 22.5 km/h 68 % 0 mm 49 W/m2
19:21 9.2 °C 3.8 °C 1029.3 hPa NNE 12.9 km/h 24.1 km/h 69 % 0 mm 44 W/m2
19:26 9.1 °C 3.7 °C 1029.7 hPa NNE 12.9 km/h 24.1 km/h 69 % 0 mm 40 W/m2
19:31 8.9 °C 3.5 °C 1029.7 hPa NNE 14.5 km/h 25.7 km/h 69 % 0 mm 37 W/m2
19:36 8.9 °C 3.5 °C 1029.7 hPa NNE 9.7 km/h 25.7 km/h 69 % 0 mm 35 W/m2
19:41 8.9 °C 3.5 °C 1029.7 hPa NE 4.8 km/h 16.1 km/h 69 % 0 mm 26 W/m2
19:46 8.9 °C 3.5 °C 1029.7 hPa NE 3.2 km/h 12.9 km/h 69 % 0 mm 25 W/m2
19:51 8.9 °C 3.5 °C 1029.7 hPa NNE 3.2 km/h 20.9 km/h 69 % 0 mm 21 W/m2
19:56 8.8 °C 3.2 °C 1029.7 hPa NNE 9.7 km/h 29 km/h 68 % 0 mm 21 W/m2
20:01 8.7 °C 3.1 °C 1029.7 hPa NNE 12.9 km/h 29 km/h 68 % 0 mm 19 W/m2
20:06 8.6 °C 3.2 °C 1029.7 hPa NNE 11.3 km/h 22.5 km/h 69 % 0 mm 18 W/m2
20:11 8.6 °C 3.2 °C 1029.7 hPa NNE 6.4 km/h 20.9 km/h 69 % 0 mm 14 W/m2
20:16 8.5 °C 3.1 °C 1029.7 hPa NNE 6.4 km/h 20.9 km/h 69 % 0 mm 12 W/m2
20:21 8.4 °C 3.1 °C 1029.7 hPa NNE 9.7 km/h 20.9 km/h 69 % 0 mm 12 W/m2
20:26 8.4 °C 3.1 °C 1029.7 hPa NNE 9.7 km/h 17.7 km/h 69 % 0 mm 9 W/m2
20:31 8.3 °C 3.2 °C 1029.7 hPa NNE 8 km/h 17.7 km/h 70 % 0 mm 5 W/m2
20:36 8.3 °C 3.2 °C 1029.7 hPa NE 6.4 km/h 17.7 km/h 70 % 0 mm 0 W/m2
20:41 8.3 °C 3.3 °C 1029.7 hPa NNE 8 km/h 19.3 km/h 71 % 0 mm 0 W/m2
20:46 8.2 °C 3.3 °C 1029.7 hPa NE 8 km/h 19.3 km/h 71 % 0 mm 0 W/m2
20:51 8.2 °C 3.4 °C 1029.7 hPa NE 6.4 km/h 17.7 km/h 72 % 0 mm 0 W/m2
20:56 8.2 °C 3.4 °C 1030 hPa NE 6.4 km/h 17.7 km/h 72 % 0 mm 0 W/m2
21:01 8.1 °C 3.3 °C 1030 hPa NE 8 km/h 17.7 km/h 72 % 0 mm 0 W/m2
21:06 8.1 °C 3.2 °C 1030 hPa NE 6.4 km/h 17.7 km/h 71 % 0 mm 0 W/m2
21:11 8 °C 3.1 °C 1030 hPa NE 6.4 km/h 19.3 km/h 71 % 0 mm 0 W/m2
21:16 7.9 °C 2.9 °C 1030 hPa NE 9.7 km/h 19.3 km/h 71 % 0 mm 0 W/m2
21:22 7.9 °C 2.9 °C 1030 hPa NE 9.7 km/h 17.7 km/h 71 % 0 mm 0 W/m2
21:27 7.9 °C 3.2 °C 1030 hPa ENE 8 km/h 17.7 km/h 72 % 0 mm 0 W/m2
21:32 7.8 °C 2.9 °C 1030 hPa NE 6.4 km/h 14.5 km/h 71 % 0 mm 0 W/m2
21:37 7.8 °C 2.9 °C 1030 hPa NNE 8 km/h 19.3 km/h 71 % 0 mm 0 W/m2
21:42 7.8 °C 3.1 °C 1030 hPa NNE 8 km/h 19.3 km/h 72 % 0 mm 0 W/m2
21:47 7.8 °C 3.1 °C 1030.4 hPa NE 4.8 km/h 16.1 km/h 72 % 0 mm 0 W/m2
21:52 7.8 °C 3.1 °C 1030 hPa NE 6.4 km/h 20.9 km/h 72 % 0 mm 0 W/m2
21:57 7.7 °C 3.2 °C 1030 hPa NE 8 km/h 20.9 km/h 73 % 0 mm 0 W/m2
22:02 7.7 °C 3.2 °C 1030 hPa NE 4.8 km/h 17.7 km/h 73 % 0 mm 0 W/m2
22:07 7.7 °C 3.2 °C 1030 hPa ENE 4.8 km/h 16.1 km/h 73 % 0 mm 0 W/m2
22:12 7.6 °C 3.1 °C 1030 hPa ENE 6.4 km/h 16.1 km/h 73 % 0 mm 0 W/m2
22:17 7.6 °C 2.9 °C 1030.4 hPa ENE 6.4 km/h 16.1 km/h 72 % 0 mm 0 W/m2
22:22 7.6 °C 2.9 °C 1030 hPa ENE 4.8 km/h 16.1 km/h 72 % 0 mm 0 W/m2
22:27 7.6 °C 2.9 °C 1030.4 hPa ENE 4.8 km/h 17.7 km/h 72 % 0 mm 0 W/m2
22:32 7.5 °C 2.8 °C 1030.4 hPa ENE 4.8 km/h 17.7 km/h 72 % 0 mm 0 W/m2
22:37 7.5 °C 2.9 °C 1030.4 hPa NE 4.8 km/h 14.5 km/h 73 % 0 mm 0 W/m2
22:42 7.5 °C 2.9 °C 1030.4 hPa NNE 4.8 km/h 14.5 km/h 73 % 0 mm 0 W/m2
22:47 7.4 °C 2.9 °C 1030 hPa NE 6.4 km/h 17.7 km/h 73 % 0 mm 0 W/m2
22:52 7.4 °C 2.9 °C 1030 hPa NE 8 km/h 19.3 km/h 73 % 0 mm 0 W/m2
22:57 7.4 °C 2.9 °C 1030 hPa NNE 8 km/h 19.3 km/h 73 % 0 mm 0 W/m2
23:02 7.4 °C 3.1 °C 1030 hPa NE 8 km/h 17.7 km/h 74 % 0 mm 0 W/m2
23:07 7.4 °C 3.1 °C 1030 hPa NE 8 km/h 17.7 km/h 74 % 0 mm 0 W/m2
23:12 7.3 °C 2.8 °C 1030 hPa NNE 8 km/h 17.7 km/h 73 % 0 mm 0 W/m2
23:17 7.3 °C 2.8 °C 1030 hPa NNE 9.7 km/h 29 km/h 73 % 0 mm 0 W/m2
23:22 7.3 °C 2.8 °C 1030 hPa NE 9.7 km/h 29 km/h 73 % 0 mm 0 W/m2
23:27 7.2 °C 2.7 °C 1030 hPa NNE 9.7 km/h 19.3 km/h 73 % 0 mm 0 W/m2
23:32 7.2 °C 2.7 °C 1030 hPa NNE 6.4 km/h 14.5 km/h 73 % 0 mm 0 W/m2
23:37 7.2 °C 2.7 °C 1030 hPa NE 4.8 km/h 14.5 km/h 73 % 0 mm 0 W/m2
23:42 7.2 °C 2.7 °C 1030 hPa NNE 3.2 km/h 14.5 km/h 73 % 0 mm 0 W/m2
23:47 7.1 °C 2.6 °C 1030 hPa NE 3.2 km/h 11.3 km/h 73 % 0 mm 0 W/m2
23:52 7.1 °C 2.6 °C 1030 hPa NE 4.8 km/h 14.5 km/h 73 % 0 mm 0 W/m2
23:57 7.1 °C 2.6 °C 1030 hPa NE 3.2 km/h 14.5 km/h 73 % 0 mm 0 W/m2
Delerius-Weather
Compliments of Weather Underground - 2.25 mb

Data updates at regular intervals.